sensor_id;sensor_type;location;lat;lon;timestamp;temperature;humidity
3912;DHT22;1971;51.778;10.330;2024-02-21T00:00:25;5.20;99.90
3912;DHT22;1971;51.778;10.330;2024-02-21T00:02:55;5.20;99.90
3912;DHT22;1971;51.778;10.330;2024-02-21T00:05:27;5.20;99.90
3912;DHT22;1971;51.778;10.330;2024-02-21T00:07:59;5.30;99.90
3912;DHT22;1971;51.778;10.330;2024-02-21T00:10:33;5.50;99.90
3912;DHT22;1971;51.778;10.330;2024-02-21T00:13:03;5.30;99.90
3912;DHT22;1971;51.778;10.330;2024-02-21T00:15:33;5.30;99.90
3912;DHT22;1971;51.778;10.330;2024-02-21T00:18:04;5.20;99.90
3912;DHT22;1971;51.778;10.330;2024-02-21T00:20:34;5.30;99.90
3912;DHT22;1971;51.778;10.330;2024-02-21T00:23:04;5.20;99.90
3912;DHT22;1971;51.778;10.330;2024-02-21T00:25:37;5.10;99.90
3912;DHT22;1971;51.778;10.330;2024-02-21T00:28:08;5.10;99.90
3912;DHT22;1971;51.778;10.330;2024-02-21T00:30:38;5.10;99.90
3912;DHT22;1971;51.778;10.330;2024-02-21T00:33:09;5.30;99.90
3912;DHT22;1971;51.778;10.330;2024-02-21T00:35:39;5.00;99.90
3912;DHT22;1971;51.778;10.330;2024-02-21T00:38:09;5.20;99.90
3912;DHT22;1971;51.778;10.330;2024-02-21T00:40:43;5.10;99.90
3912;DHT22;1971;51.778;10.330;2024-02-21T00:43:13;5.40;99.90
3912;DHT22;1971;51.778;10.330;2024-02-21T00:45:44;5.50;99.90
3912;DHT22;1971;51.778;10.330;2024-02-21T00:48:14;5.20;99.90
3912;DHT22;1971;51.778;10.330;2024-02-21T00:50:44;5.20;99.90
3912;DHT22;1971;51.778;10.330;2024-02-21T00:53:15;5.10;99.90
3912;DHT22;1971;51.778;10.330;2024-02-21T00:55:48;5.00;99.90
3912;DHT22;1971;51.778;10.330;2024-02-21T00:58:18;5.20;99.90
3912;DHT22;1971;51.778;10.330;2024-02-21T01:00:48;5.20;99.90
3912;DHT22;1971;51.778;10.330;2024-02-21T01:03:19;5.40;99.90
3912;DHT22;1971;51.778;10.330;2024-02-21T01:05:49;5.00;99.90
3912;DHT22;1971;51.778;10.330;2024-02-21T01:08:20;5.10;99.90
3912;DHT22;1971;51.778;10.330;2024-02-21T01:10:53;5.00;99.90
3912;DHT22;1971;51.778;10.330;2024-02-21T01:13:23;5.20;99.90
3912;DHT22;1971;51.778;10.330;2024-02-21T01:15:53;5.00;99.90
3912;DHT22;1971;51.778;10.330;2024-02-21T01:18:24;5.00;99.90
3912;DHT22;1971;51.778;10.330;2024-02-21T01:20:54;4.90;99.90
3912;DHT22;1971;51.778;10.330;2024-02-21T01:23:24;4.90;99.90
3912;DHT22;1971;51.778;10.330;2024-02-21T01:25:56;5.00;99.90
3912;DHT22;1971;51.778;10.330;2024-02-21T01:28:27;5.00;99.90
3912;DHT22;1971;51.778;10.330;2024-02-21T01:30:57;5.00;99.90
3912;DHT22;1971;51.778;10.330;2024-02-21T01:33:28;5.20;99.90
3912;DHT22;1971;51.778;10.330;2024-02-21T01:36:02;5.00;99.90
3912;DHT22;1971;51.778;10.330;2024-02-21T01:38:34;4.90;99.90
3912;DHT22;1971;51.778;10.330;2024-02-21T01:41:07;5.10;99.90
3912;DHT22;1971;51.778;10.330;2024-02-21T01:43:37;4.90;99.90
3912;DHT22;1971;51.778;10.330;2024-02-21T01:46:07;4.80;99.90
3912;DHT22;1971;51.778;10.330;2024-02-21T01:48:35;5.00;99.90
3912;DHT22;1971;51.778;10.330;2024-02-21T01:51:06;4.90;99.90
3912;DHT22;1971;51.778;10.330;2024-02-21T01:53:38;4.90;99.90
3912;DHT22;1971;51.778;10.330;2024-02-21T01:56:12;4.70;99.90
3912;DHT22;1971;51.778;10.330;2024-02-21T01:58:43;4.90;99.90
3912;DHT22;1971;51.778;10.330;2024-02-21T02:01:14;5.10;99.90
3912;DHT22;1971;51.778;10.330;2024-02-21T02:03:48;4.80;99.90
3912;DHT22;1971;51.778;10.330;2024-02-21T02:06:20;4.90;99.90
3912;DHT22;1971;51.778;10.330;2024-02-21T02:08:50;4.70;99.90
3912;DHT22;1971;51.778;10.330;2024-02-21T02:11:24;5.10;99.90
3912;DHT22;1971;51.778;10.330;2024-02-21T02:13:54;4.70;99.90
3912;DHT22;1971;51.778;10.330;2024-02-21T02:16:25;5.00;99.90
3912;DHT22;1971;51.778;10.330;2024-02-21T02:18:55;4.70;99.90
3912;DHT22;1971;51.778;10.330;2024-02-21T02:21:29;4.80;99.90
3912;DHT22;1971;51.778;10.330;2024-02-21T02:24:03;4.70;99.90
3912;DHT22;1971;51.778;10.330;2024-02-21T02:26:33;4.70;99.90
3912;DHT22;1971;51.778;10.330;2024-02-21T02:29:03;4.80;99.90
3912;DHT22;1971;51.778;10.330;2024-02-21T02:31:33;5.00;99.90
3912;DHT22;1971;51.778;10.330;2024-02-21T02:34:05;4.90;99.90
3912;DHT22;1971;51.778;10.330;2024-02-21T02:36:36;4.80;99.90
3912;DHT22;1971;51.778;10.330;2024-02-21T02:39:08;4.90;99.90
3912;DHT22;1971;51.778;10.330;2024-02-21T02:41:38;4.70;99.90
3912;DHT22;1971;51.778;10.330;2024-02-21T02:44:08;4.80;99.90
3912;DHT22;1971;51.778;10.330;2024-02-21T02:46:40;4.70;99.90
3912;DHT22;1971;51.778;10.330;2024-02-21T02:49:10;4.70;99.90
3912;DHT22;1971;51.778;10.330;2024-02-21T02:51:41;4.70;99.90
3912;DHT22;1971;51.778;10.330;2024-02-21T02:54:15;4.90;99.90
3912;DHT22;1971;51.778;10.330;2024-02-21T02:56:45;4.60;99.90
3912;DHT22;1971;51.778;10.330;2024-02-21T02:59:15;4.60;99.90
3912;DHT22;1971;51.778;10.330;2024-02-21T03:01:46;5.00;99.90
3912;DHT22;1971;51.778;10.330;2024-02-21T03:04:13;4.60;99.90
3912;DHT22;1971;51.778;10.330;2024-02-21T03:06:44;4.80;99.90
3912;DHT22;1971;51.778;10.330;2024-02-21T03:09:17;4.60;99.90
3912;DHT22;1971;51.778;10.330;2024-02-21T03:11:47;4.80;99.90
3912;DHT22;1971;51.778;10.330;2024-02-21T03:14:17;4.90;99.90
3912;DHT22;1971;51.778;10.330;2024-02-21T03:16:47;5.00;99.90
3912;DHT22;1971;51.778;10.330;2024-02-21T03:19:17;5.00;99.90
3912;DHT22;1971;51.778;10.330;2024-02-21T03:21:48;5.10;99.90
3912;DHT22;1971;51.778;10.330;2024-02-21T03:24:21;4.90;99.90
3912;DHT22;1971;51.778;10.330;2024-02-21T03:26:51;4.70;99.90
3912;DHT22;1971;51.778;10.330;2024-02-21T03:29:22;5.00;99.90
3912;DHT22;1971;51.778;10.330;2024-02-21T03:31:52;4.90;99.90
3912;DHT22;1971;51.778;10.330;2024-02-21T03:34:22;4.90;99.90
3912;DHT22;1971;51.778;10.330;2024-02-21T03:36:53;4.70;99.90
3912;DHT22;1971;51.778;10.330;2024-02-21T03:39:25;4.90;99.90
3912;DHT22;1971;51.778;10.330;2024-02-21T03:41:55;4.70;99.90
3912;DHT22;1971;51.778;10.330;2024-02-21T03:44:28;4.90;99.90
3912;DHT22;1971;51.778;10.330;2024-02-21T03:46:58;4.80;99.90
3912;DHT22;1971;51.778;10.330;2024-02-21T03:49:28;4.80;99.90
3912;DHT22;1971;51.778;10.330;2024-02-21T03:51:59;4.60;99.90
3912;DHT22;1971;51.778;10.330;2024-02-21T03:54:31;4.70;99.90
3912;DHT22;1971;51.778;10.330;2024-02-21T03:57:02;4.70;99.90
3912;DHT22;1971;51.778;10.330;2024-02-21T03:59:32;4.70;99.90
3912;DHT22;1971;51.778;10.330;2024-02-21T04:02:02;4.90;99.90
3912;DHT22;1971;51.778;10.330;2024-02-21T04:04:36;4.80;99.90
3912;DHT22;1971;51.778;10.330;2024-02-21T04:07:07;4.90;99.90
3912;DHT22;1971;51.778;10.330;2024-02-21T04:09:40;5.10;99.90
3912;DHT22;1971;51.778;10.330;2024-02-21T04:12:10;5.10;99.90
3912;DHT22;1971;51.778;10.330;2024-02-21T04:14:40;4.90;99.90
3912;DHT22;1971;51.778;10.330;2024-02-21T04:17:13;5.00;99.90
3912;DHT22;1971;51.778;10.330;2024-02-21T04:19:43;4.90;99.90
3912;DHT22;1971;51.778;10.330;2024-02-21T04:22:13;4.90;99.90
3912;DHT22;1971;51.778;10.330;2024-02-21T04:24:46;4.90;99.90
3912;DHT22;1971;51.778;10.330;2024-02-21T04:27:17;5.10;99.90
3912;DHT22;1971;51.778;10.330;2024-02-21T04:29:47;5.10;99.90
3912;DHT22;1971;51.778;10.330;2024-02-21T04:32:17;5.00;99.90
3912;DHT22;1971;51.778;10.330;2024-02-21T04:34:47;5.20;99.90
3912;DHT22;1971;51.778;10.330;2024-02-21T04:37:18;5.10;99.90
3912;DHT22;1971;51.778;10.330;2024-02-21T04:39:51;4.80;99.90
3912;DHT22;1971;51.778;10.330;2024-02-21T04:42:21;5.10;99.90
3912;DHT22;1971;51.778;10.330;2024-02-21T04:44:52;4.90;99.90
3912;DHT22;1971;51.778;10.330;2024-02-21T04:47:22;4.90;99.90
3912;DHT22;1971;51.778;10.330;2024-02-21T04:49:53;5.10;99.90
3912;DHT22;1971;51.778;10.330;2024-02-21T04:52:24;4.90;99.90
3912;DHT22;1971;51.778;10.330;2024-02-21T04:54:57;4.80;99.90
3912;DHT22;1971;51.778;10.330;2024-02-21T04:57:27;4.90;99.90
3912;DHT22;1971;51.778;10.330;2024-02-21T04:59:57;5.10;99.90
3912;DHT22;1971;51.778;10.330;2024-02-21T05:02:28;4.90;99.90
3912;DHT22;1971;51.778;10.330;2024-02-21T05:04:58;5.10;99.90
3912;DHT22;1971;51.778;10.330;2024-02-21T05:07:29;5.00;99.90
3912;DHT22;1971;51.778;10.330;2024-02-21T05:10:02;4.80;99.90
3912;DHT22;1971;51.778;10.330;2024-02-21T05:12:33;4.90;99.90
3912;DHT22;1971;51.778;10.330;2024-02-21T05:15:04;5.00;99.90
3912;DHT22;1971;51.778;10.330;2024-02-21T05:17:35;4.90;99.90
3912;DHT22;1971;51.778;10.330;2024-02-21T05:20:06;5.00;99.90
3912;DHT22;1971;51.778;10.330;2024-02-21T05:22:37;5.10;99.90
3912;DHT22;1971;51.778;10.330;2024-02-21T05:25:10;4.90;99.90
3912;DHT22;1971;51.778;10.330;2024-02-21T05:27:41;5.10;99.90
3912;DHT22;1971;51.778;10.330;2024-02-21T05:30:12;4.90;99.90
3912;DHT22;1971;51.778;10.330;2024-02-21T05:32:42;5.00;99.90
3912;DHT22;1971;51.778;10.330;2024-02-21T05:35:12;4.80;99.90
3912;DHT22;1971;51.778;10.330;2024-02-21T05:37:43;4.80;99.90
3912;DHT22;1971;51.778;10.330;2024-02-21T05:40:17;4.90;99.90
3912;DHT22;1971;51.778;10.330;2024-02-21T05:42:47;4.90;99.90
3912;DHT22;1971;51.778;10.330;2024-02-21T05:45:18;5.00;99.90
3912;DHT22;1971;51.778;10.330;2024-02-21T05:47:48;4.90;99.90
3912;DHT22;1971;51.778;10.330;2024-02-21T05:50:19;4.90;99.90
3912;DHT22;1971;51.778;10.330;2024-02-21T05:52:51;4.90;99.90
3912;DHT22;1971;51.778;10.330;2024-02-21T05:55:24;4.80;99.90
3912;DHT22;1971;51.778;10.330;2024-02-21T05:57:55;4.50;99.90
3912;DHT22;1971;51.778;10.330;2024-02-21T06:00:25;5.00;99.90
3912;DHT22;1971;51.778;10.330;2024-02-21T06:02:56;4.60;99.90
3912;DHT22;1971;51.778;10.330;2024-02-21T06:05:26;4.60;99.90
3912;DHT22;1971;51.778;10.330;2024-02-21T06:07:56;4.60;99.90
3912;DHT22;1971;51.778;10.330;2024-02-21T06:10:29;4.60;99.90
3912;DHT22;1971;51.778;10.330;2024-02-21T06:12:59;4.70;99.90
3912;DHT22;1971;51.778;10.330;2024-02-21T06:15:30;4.70;99.90
3912;DHT22;1971;51.778;10.330;2024-02-21T06:18:00;5.20;99.90
3912;DHT22;1971;51.778;10.330;2024-02-21T06:20:30;4.60;99.90
3912;DHT22;1971;51.778;10.330;2024-02-21T06:23:03;4.80;99.90
3912;DHT22;1971;51.778;10.330;2024-02-21T06:25:36;5.10;99.90
3912;DHT22;1971;51.778;10.330;2024-02-21T06:28:06;5.10;99.90
3912;DHT22;1971;51.778;10.330;2024-02-21T06:30:36;4.90;99.90
3912;DHT22;1971;51.778;10.330;2024-02-21T06:33:06;5.00;99.90
3912;DHT22;1971;51.778;10.330;2024-02-21T06:35:37;4.70;99.90
3912;DHT22;1971;51.778;10.330;2024-02-21T06:38:09;4.80;99.90
3912;DHT22;1971;51.778;10.330;2024-02-21T06:40:42;5.00;99.90
3912;DHT22;1971;51.778;10.330;2024-02-21T06:43:17;4.90;99.90
3912;DHT22;1971;51.778;10.330;2024-02-21T06:45:49;4.90;99.90
3912;DHT22;1971;51.778;10.330;2024-02-21T06:48:21;4.80;99.90
3912;DHT22;1971;51.778;10.330;2024-02-21T06:50:52;4.90;99.90
3912;DHT22;1971;51.778;10.330;2024-02-21T06:53:22;5.10;99.90
3912;DHT22;1971;51.778;10.330;2024-02-21T06:55:54;5.20;99.90
3912;DHT22;1971;51.778;10.330;2024-02-21T06:58:25;5.20;99.90
3912;DHT22;1971;51.778;10.330;2024-02-21T07:00:55;4.90;99.90
3912;DHT22;1971;51.778;10.330;2024-02-21T07:03:26;5.00;99.90
3912;DHT22;1971;51.778;10.330;2024-02-21T07:05:56;5.10;99.90
3912;DHT22;1971;51.778;10.330;2024-02-21T07:08:27;4.80;99.90
3912;DHT22;1971;51.778;10.330;2024-02-21T07:10:59;4.90;99.90
3912;DHT22;1971;51.778;10.330;2024-02-21T07:13:29;5.10;99.90
3912;DHT22;1971;51.778;10.330;2024-02-21T07:16:00;5.10;99.90
3912;DHT22;1971;51.778;10.330;2024-02-21T07:18:30;4.90;99.90
3912;DHT22;1971;51.778;10.330;2024-02-21T07:21:00;5.10;99.90
3912;DHT22;1971;51.778;10.330;2024-02-21T07:23:30;5.10;99.90
3912;DHT22;1971;51.778;10.330;2024-02-21T07:26:04;4.80;99.90
3912;DHT22;1971;51.778;10.330;2024-02-21T07:28:34;4.90;99.90
3912;DHT22;1971;51.778;10.330;2024-02-21T07:31:04;5.30;99.90
3912;DHT22;1971;51.778;10.330;2024-02-21T07:33:34;5.20;99.90
3912;DHT22;1971;51.778;10.330;2024-02-21T07:36:06;5.10;99.90
3912;DHT22;1971;51.778;10.330;2024-02-21T07:38:37;5.00;99.90
3912;DHT22;1971;51.778;10.330;2024-02-21T07:41:10;5.40;99.90
3912;DHT22;1971;51.778;10.330;2024-02-21T07:43:41;5.10;99.90
3912;DHT22;1971;51.778;10.330;2024-02-21T07:46:11;5.00;99.90
3912;DHT22;1971;51.778;10.330;2024-02-21T07:48:41;5.10;99.90
3912;DHT22;1971;51.778;10.330;2024-02-21T07:51:12;5.20;99.90
3912;DHT22;1971;51.778;10.330;2024-02-21T07:53:44;5.10;99.90
3912;DHT22;1971;51.778;10.330;2024-02-21T07:56:18;5.20;99.90
3912;DHT22;1971;51.778;10.330;2024-02-21T07:58:48;5.40;99.90
3912;DHT22;1971;51.778;10.330;2024-02-21T08:01:19;5.20;99.90
3912;DHT22;1971;51.778;10.330;2024-02-21T08:03:50;5.20;99.90
3912;DHT22;1971;51.778;10.330;2024-02-21T08:06:20;5.20;99.90
3912;DHT22;1971;51.778;10.330;2024-02-21T08:08:50;5.20;99.90
3912;DHT22;1971;51.778;10.330;2024-02-21T08:11:23;5.30;99.90
3912;DHT22;1971;51.778;10.330;2024-02-21T08:13:53;5.30;99.90
3912;DHT22;1971;51.778;10.330;2024-02-21T08:16:23;5.40;99.90
3912;DHT22;1971;51.778;10.330;2024-02-21T08:18:54;5.30;99.90
3912;DHT22;1971;51.778;10.330;2024-02-21T08:21:25;5.40;99.90
3912;DHT22;1971;51.778;10.330;2024-02-21T08:23:56;5.40;99.90
3912;DHT22;1971;51.778;10.330;2024-02-21T08:26:28;5.40;99.90
3912;DHT22;1971;51.778;10.330;2024-02-21T08:28:58;5.50;99.90
3912;DHT22;1971;51.778;10.330;2024-02-21T08:31:29;5.50;99.90
3912;DHT22;1971;51.778;10.330;2024-02-21T08:34:01;5.40;99.90
3912;DHT22;1971;51.778;10.330;2024-02-21T08:36:33;5.30;99.90
3912;DHT22;1971;51.778;10.330;2024-02-21T08:39:03;5.40;99.90
3912;DHT22;1971;51.778;10.330;2024-02-21T08:41:37;5.30;99.90
3912;DHT22;1971;51.778;10.330;2024-02-21T08:44:23;5.40;99.90
3912;DHT22;1971;51.778;10.330;2024-02-21T08:46:54;5.40;99.90
3912;DHT22;1971;51.778;10.330;2024-02-21T08:49:24;5.30;99.90
3912;DHT22;1971;51.778;10.330;2024-02-21T08:52:01;5.40;99.90
3912;DHT22;1971;51.778;10.330;2024-02-21T08:54:31;5.70;99.90
3912;DHT22;1971;51.778;10.330;2024-02-21T08:57:04;5.60;99.90
3912;DHT22;1971;51.778;10.330;2024-02-21T08:59:34;5.40;99.90
3912;DHT22;1971;51.778;10.330;2024-02-21T09:02:04;5.50;99.90
3912;DHT22;1971;51.778;10.330;2024-02-21T09:04:36;5.60;99.90
3912;DHT22;1971;51.778;10.330;2024-02-21T09:07:06;5.40;99.90
3912;DHT22;1971;51.778;10.330;2024-02-21T09:09:37;5.50;99.90
3912;DHT22;1971;51.778;10.330;2024-02-21T09:12:10;5.60;99.90
3912;DHT22;1971;51.778;10.330;2024-02-21T09:14:42;5.60;99.90
3912;DHT22;1971;51.778;10.330;2024-02-21T09:17:14;5.70;99.90
3912;DHT22;1971;51.778;10.330;2024-02-21T09:19:44;5.60;99.90
3912;DHT22;1971;51.778;10.330;2024-02-21T09:22:14;5.80;99.90
3912;DHT22;1971;51.778;10.330;2024-02-21T09:24:45;5.50;99.90
3912;DHT22;1971;51.778;10.330;2024-02-21T09:27:17;5.60;99.90
3912;DHT22;1971;51.778;10.330;2024-02-21T09:29:48;5.50;99.90
3912;DHT22;1971;51.778;10.330;2024-02-21T09:32:18;5.50;99.90
3912;DHT22;1971;51.778;10.330;2024-02-21T09:34:49;5.70;99.90
3912;DHT22;1971;51.778;10.330;2024-02-21T09:37:26;6.00;99.90
3912;DHT22;1971;51.778;10.330;2024-02-21T09:39:56;5.90;99.90
3912;DHT22;1971;51.778;10.330;2024-02-21T09:42:35;5.80;99.90
3912;DHT22;1971;51.778;10.330;2024-02-21T09:45:13;6.00;99.90
3912;DHT22;1971;51.778;10.330;2024-02-21T09:47:55;5.90;99.90
3912;DHT22;1971;51.778;10.330;2024-02-21T09:50:29;5.90;99.90
3912;DHT22;1971;51.778;10.330;2024-02-21T09:53:01;5.90;99.90
3912;DHT22;1971;51.778;10.330;2024-02-21T09:55:33;5.80;99.90
3912;DHT22;1971;51.778;10.330;2024-02-21T09:58:10;5.90;99.90
3912;DHT22;1971;51.778;10.330;2024-02-21T10:00:41;5.90;99.90
3912;DHT22;1971;51.778;10.330;2024-02-21T10:03:11;6.00;99.90
3912;DHT22;1971;51.778;10.330;2024-02-21T10:05:47;6.00;99.90
3912;DHT22;1971;51.778;10.330;2024-02-21T10:08:19;5.90;99.90
3912;DHT22;1971;51.778;10.330;2024-02-21T10:10:49;6.00;99.90
3912;DHT22;1971;51.778;10.330;2024-02-21T10:13:28;6.00;99.90
3912;DHT22;1971;51.778;10.330;2024-02-21T10:16:05;6.10;99.90
3912;DHT22;1971;51.778;10.330;2024-02-21T10:18:36;6.20;99.90
3912;DHT22;1971;51.778;10.330;2024-02-21T10:21:07;6.20;99.90
3912;DHT22;1971;51.778;10.330;2024-02-21T10:23:44;6.50;99.90
3912;DHT22;1971;51.778;10.330;2024-02-21T10:26:14;6.30;99.90
3912;DHT22;1971;51.778;10.330;2024-02-21T10:28:48;6.50;99.90
3912;DHT22;1971;51.778;10.330;2024-02-21T10:31:23;6.40;99.90
3912;DHT22;1971;51.778;10.330;2024-02-21T10:33:55;6.70;99.90
3912;DHT22;1971;51.778;10.330;2024-02-21T10:36:26;6.40;99.90
3912;DHT22;1971;51.778;10.330;2024-02-21T10:38:56;6.20;99.90
3912;DHT22;1971;51.778;10.330;2024-02-21T10:41:28;6.70;99.90
3912;DHT22;1971;51.778;10.330;2024-02-21T10:44:02;6.30;99.90
3912;DHT22;1971;51.778;10.330;2024-02-21T10:46:35;6.50;99.90
3912;DHT22;1971;51.778;10.330;2024-02-21T10:49:10;6.80;99.90
3912;DHT22;1971;51.778;10.330;2024-02-21T10:51:44;6.80;99.90
3912;DHT22;1971;51.778;10.330;2024-02-21T10:54:26;6.70;99.90
3912;DHT22;1971;51.778;10.330;2024-02-21T10:57:00;6.70;99.90
3912;DHT22;1971;51.778;10.330;2024-02-21T10:59:35;6.70;99.90
3912;DHT22;1971;51.778;10.330;2024-02-21T11:02:07;6.60;99.90
3912;DHT22;1971;51.778;10.330;2024-02-21T11:04:37;6.70;99.90
3912;DHT22;1971;51.778;10.330;2024-02-21T11:07:08;7.30;99.90
3912;DHT22;1971;51.778;10.330;2024-02-21T11:09:39;7.30;99.90
3912;DHT22;1971;51.778;10.330;2024-02-21T11:12:09;7.30;99.90
3912;DHT22;1971;51.778;10.330;2024-02-21T11:14:42;7.30;99.90
3912;DHT22;1971;51.778;10.330;2024-02-21T11:17:15;6.80;99.90
3912;DHT22;1971;51.778;10.330;2024-02-21T11:19:46;6.90;99.90
3912;DHT22;1971;51.778;10.330;2024-02-21T11:22:17;6.80;99.90
3912;DHT22;1971;51.778;10.330;2024-02-21T11:24:50;6.70;99.90
3912;DHT22;1971;51.778;10.330;2024-02-21T11:27:21;6.80;99.90
3912;DHT22;1971;51.778;10.330;2024-02-21T11:29:57;7.30;99.90
3912;DHT22;1971;51.778;10.330;2024-02-21T11:32:28;6.80;99.90
3912;DHT22;1971;51.778;10.330;2024-02-21T11:34:59;7.00;99.90
3912;DHT22;1971;51.778;10.330;2024-02-21T11:37:33;6.70;99.90
3912;DHT22;1971;51.778;10.330;2024-02-21T11:40:05;6.80;99.90
3912;DHT22;1971;51.778;10.330;2024-02-21T11:42:39;6.80;99.90
3912;DHT22;1971;51.778;10.330;2024-02-21T11:45:14;6.70;99.90
3912;DHT22;1971;51.778;10.330;2024-02-21T11:47:45;6.90;99.90
3912;DHT22;1971;51.778;10.330;2024-02-21T11:50:16;7.10;99.90
3912;DHT22;1971;51.778;10.330;2024-02-21T11:52:48;7.00;99.90
3912;DHT22;1971;51.778;10.330;2024-02-21T11:55:18;6.90;99.90
3912;DHT22;1971;51.778;10.330;2024-02-21T11:57:49;7.30;99.90
3912;DHT22;1971;51.778;10.330;2024-02-21T12:00:23;7.30;99.90
3912;DHT22;1971;51.778;10.330;2024-02-21T12:02:54;7.20;99.90
3912;DHT22;1971;51.778;10.330;2024-02-21T12:05:30;7.00;99.90
3912;DHT22;1971;51.778;10.330;2024-02-21T12:08:00;6.80;99.90
3912;DHT22;1971;51.778;10.330;2024-02-21T12:10:31;6.80;99.90
3912;DHT22;1971;51.778;10.330;2024-02-21T12:13:07;6.80;99.90
3912;DHT22;1971;51.778;10.330;2024-02-21T12:15:41;6.90;99.90
3912;DHT22;1971;51.778;10.330;2024-02-21T12:18:11;7.10;99.90
3912;DHT22;1971;51.778;10.330;2024-02-21T12:20:41;7.20;99.90
3912;DHT22;1971;51.778;10.330;2024-02-21T12:23:13;7.00;99.90
3912;DHT22;1971;51.778;10.330;2024-02-21T12:25:44;6.90;99.90
3912;DHT22;1971;51.778;10.330;2024-02-21T12:28:14;7.00;99.90
3912;DHT22;1971;51.778;10.330;2024-02-21T12:30:47;7.00;99.90
3912;DHT22;1971;51.778;10.330;2024-02-21T12:33:17;7.10;99.90
3912;DHT22;1971;51.778;10.330;2024-02-21T12:35:47;7.20;99.90
3912;DHT22;1971;51.778;10.330;2024-02-21T12:38:17;7.20;99.90
3912;DHT22;1971;51.778;10.330;2024-02-21T12:40:48;7.00;99.90
3912;DHT22;1971;51.778;10.330;2024-02-21T12:43:18;6.90;99.90
3912;DHT22;1971;51.778;10.330;2024-02-21T12:45:52;6.90;99.90
3912;DHT22;1971;51.778;10.330;2024-02-21T12:48:23;7.20;99.90
3912;DHT22;1971;51.778;10.330;2024-02-21T12:50:53;6.90;99.90
3912;DHT22;1971;51.778;10.330;2024-02-21T12:53:23;7.30;99.90
3912;DHT22;1971;51.778;10.330;2024-02-21T12:56:00;7.00;99.90
3912;DHT22;1971;51.778;10.330;2024-02-21T12:58:32;7.30;99.90
3912;DHT22;1971;51.778;10.330;2024-02-21T13:01:05;7.10;99.90
3912;DHT22;1971;51.778;10.330;2024-02-21T13:03:35;7.00;99.90
3912;DHT22;1971;51.778;10.330;2024-02-21T13:06:05;7.00;99.90
3912;DHT22;1971;51.778;10.330;2024-02-21T13:08:38;7.00;99.90
3912;DHT22;1971;51.778;10.330;2024-02-21T13:11:08;7.30;99.90
3912;DHT22;1971;51.778;10.330;2024-02-21T13:13:38;7.10;99.90
3912;DHT22;1971;51.778;10.330;2024-02-21T13:16:11;7.30;99.90
3912;DHT22;1971;51.778;10.330;2024-02-21T13:18:41;7.10;99.90
3912;DHT22;1971;51.778;10.330;2024-02-21T13:21:14;7.10;99.90
3912;DHT22;1971;51.778;10.330;2024-02-21T13:23:45;7.30;99.90
3912;DHT22;1971;51.778;10.330;2024-02-21T13:26:15;7.30;99.90
3912;DHT22;1971;51.778;10.330;2024-02-21T13:28:45;7.30;99.90
3912;DHT22;1971;51.778;10.330;2024-02-21T13:31:18;7.10;99.90
3912;DHT22;1971;51.778;10.330;2024-02-21T13:33:49;7.10;99.90
3912;DHT22;1971;51.778;10.330;2024-02-21T13:36:19;7.10;99.90
3912;DHT22;1971;51.778;10.330;2024-02-21T13:38:49;7.20;99.90
3912;DHT22;1971;51.778;10.330;2024-02-21T13:41:20;7.00;99.90
3912;DHT22;1971;51.778;10.330;2024-02-21T13:43:50;7.20;99.90
3912;DHT22;1971;51.778;10.330;2024-02-21T13:46:23;7.00;99.90
3912;DHT22;1971;51.778;10.330;2024-02-21T13:49:02;7.60;99.90
3912;DHT22;1971;51.778;10.330;2024-02-21T13:51:35;7.20;99.90
3912;DHT22;1971;51.778;10.330;2024-02-21T13:54:08;7.60;99.90
3912;DHT22;1971;51.778;10.330;2024-02-21T13:56:42;7.50;99.90
3912;DHT22;1971;51.778;10.330;2024-02-21T13:59:12;7.10;99.90
3912;DHT22;1971;51.778;10.330;2024-02-21T14:01:46;7.00;99.90
3912;DHT22;1971;51.778;10.330;2024-02-21T14:04:16;7.10;99.90
3912;DHT22;1971;51.778;10.330;2024-02-21T14:06:47;7.20;99.90
3912;DHT22;1971;51.778;10.330;2024-02-21T14:09:18;7.20;99.90
3912;DHT22;1971;51.778;10.330;2024-02-21T14:11:48;7.30;99.90
3912;DHT22;1971;51.778;10.330;2024-02-21T14:14:19;7.10;99.90
3912;DHT22;1971;51.778;10.330;2024-02-21T14:16:52;7.00;99.90
3912;DHT22;1971;51.778;10.330;2024-02-21T14:19:23;7.10;99.90
3912;DHT22;1971;51.778;10.330;2024-02-21T14:21:53;6.90;99.90
3912;DHT22;1971;51.778;10.330;2024-02-21T14:24:23;6.90;99.90
3912;DHT22;1971;51.778;10.330;2024-02-21T14:26:55;7.20;99.90
3912;DHT22;1971;51.778;10.330;2024-02-21T14:29:25;6.80;99.90
3912;DHT22;1971;51.778;10.330;2024-02-21T14:32:01;6.70;99.90
3912;DHT22;1971;51.778;10.330;2024-02-21T14:34:33;6.70;99.90
3912;DHT22;1971;51.778;10.330;2024-02-21T14:37:03;6.90;99.90
3912;DHT22;1971;51.778;10.330;2024-02-21T14:39:33;6.70;99.90
3912;DHT22;1971;51.778;10.330;2024-02-21T14:42:04;6.60;99.90
3912;DHT22;1971;51.778;10.330;2024-02-21T14:44:34;6.70;99.90
3912;DHT22;1971;51.778;10.330;2024-02-21T14:47:07;6.80;99.90
3912;DHT22;1971;51.778;10.330;2024-02-21T14:49:37;6.70;99.90
3912;DHT22;1971;51.778;10.330;2024-02-21T14:52:07;6.60;99.90
3912;DHT22;1971;51.778;10.330;2024-02-21T14:54:38;6.80;99.90
3912;DHT22;1971;51.778;10.330;2024-02-21T14:57:11;6.90;99.90
3912;DHT22;1971;51.778;10.330;2024-02-21T14:59:41;6.50;99.90
3912;DHT22;1971;51.778;10.330;2024-02-21T15:02:14;6.70;99.90
3912;DHT22;1971;51.778;10.330;2024-02-21T15:04:45;6.30;99.90
3912;DHT22;1971;51.778;10.330;2024-02-21T15:07:15;6.40;99.90
3912;DHT22;1971;51.778;10.330;2024-02-21T15:09:46;6.60;99.90
3912;DHT22;1971;51.778;10.330;2024-02-21T15:12:22;6.60;99.90
3912;DHT22;1971;51.778;10.330;2024-02-21T15:14:58;6.40;99.90
3912;DHT22;1971;51.778;10.330;2024-02-21T15:17:37;6.20;99.90
3912;DHT22;1971;51.778;10.330;2024-02-21T15:20:08;6.20;99.90
3912;DHT22;1971;51.778;10.330;2024-02-21T15:22:38;6.40;99.90
3912;DHT22;1971;51.778;10.330;2024-02-21T15:25:09;6.40;99.90
3912;DHT22;1971;51.778;10.330;2024-02-21T15:27:42;6.80;99.90
3912;DHT22;1971;51.778;10.330;2024-02-21T15:30:14;6.40;99.90
3912;DHT22;1971;51.778;10.330;2024-02-21T15:32:46;6.20;99.90
3912;DHT22;1971;51.778;10.330;2024-02-21T15:35:16;6.40;99.90
3912;DHT22;1971;51.778;10.330;2024-02-21T15:37:46;6.80;99.90
3912;DHT22;1971;51.778;10.330;2024-02-21T15:40:16;6.30;99.90
3912;DHT22;1971;51.778;10.330;2024-02-21T15:42:47;6.30;99.90
3912;DHT22;1971;51.778;10.330;2024-02-21T15:45:21;6.30;99.90
3912;DHT22;1971;51.778;10.330;2024-02-21T15:47:54;6.60;99.90
3912;DHT22;1971;51.778;10.330;2024-02-21T15:50:24;6.30;99.90
3912;DHT22;1971;51.778;10.330;2024-02-21T15:52:55;6.50;99.90
3912;DHT22;1971;51.778;10.330;2024-02-21T15:55:26;6.40;99.90
3912;DHT22;1971;51.778;10.330;2024-02-21T15:57:56;6.20;99.90
3912;DHT22;1971;51.778;10.330;2024-02-21T16:00:26;6.50;99.90
3912;DHT22;1971;51.778;10.330;2024-02-21T16:02:59;6.50;99.90
3912;DHT22;1971;51.778;10.330;2024-02-21T16:05:30;6.50;99.90
3912;DHT22;1971;51.778;10.330;2024-02-21T16:08:00;6.50;99.90
3912;DHT22;1971;51.778;10.330;2024-02-21T16:10:31;6.40;99.90
3912;DHT22;1971;51.778;10.330;2024-02-21T16:13:01;6.20;99.90
3912;DHT22;1971;51.778;10.330;2024-02-21T16:15:33;6.40;99.90
3912;DHT22;1971;51.778;10.330;2024-02-21T16:18:09;6.20;99.90
3912;DHT22;1971;51.778;10.330;2024-02-21T16:20:39;6.10;99.90
3912;DHT22;1971;51.778;10.330;2024-02-21T16:23:09;5.90;99.90
3912;DHT22;1971;51.778;10.330;2024-02-21T16:25:41;5.90;99.90
3912;DHT22;1971;51.778;10.330;2024-02-21T16:28:12;5.80;99.90